createdAt,value
2018-06-21T00:00:31.126Z,22.41
2018-06-21T00:01:30.875Z,22.38
2018-06-21T00:02:30.623Z,22.35
2018-06-21T00:03:31.144Z,22.29
2018-06-21T00:04:31.940Z,22.32
2018-06-21T00:05:31.249Z,22.35
2018-06-21T00:06:30.933Z,22.28
2018-06-21T00:07:31.149Z,22.29
2018-06-21T00:08:30.922Z,22.33
2018-06-21T00:09:30.896Z,22.28
2018-06-21T00:10:31.156Z,22.26
2018-06-21T00:11:31.260Z,22.3
2018-06-21T00:12:30.926Z,22.32
2018-06-21T00:13:30.908Z,22.3
2018-06-21T00:14:30.655Z,22.28
2018-06-21T00:15:31.171Z,22.28
2018-06-21T00:16:30.938Z,22.3
2018-06-21T00:17:30.931Z,22.35
2018-06-21T00:18:30.702Z,22.28
2018-06-21T00:19:31.261Z,22.36
2018-06-21T00:20:31.179Z,22.38
2018-06-21T00:21:30.949Z,22.29
2018-06-21T00:22:30.930Z,22.47
2018-06-21T00:23:31.198Z,22.5
2018-06-21T00:24:30.939Z,22.48
2018-06-21T00:25:30.691Z,22.51
2018-06-21T00:26:31.202Z,22.55
2018-06-21T00:27:30.693Z,22.59
2018-06-21T00:28:31.198Z,22.63
2018-06-21T00:29:30.697Z,22.66
2018-06-21T00:30:31.203Z,22.62
2018-06-21T00:31:30.701Z,22.7
2018-06-21T00:32:31.206Z,22.63
2018-06-21T00:33:31.220Z,22.7
2018-06-21T00:34:31.780Z,22.69
2018-06-21T00:35:30.975Z,22.63
2018-06-21T00:36:30.967Z,22.62
2018-06-21T00:37:31.224Z,22.65
2018-06-21T00:38:30.983Z,22.63
2018-06-21T00:39:30.983Z,22.65
2018-06-21T00:40:31.227Z,22.63
2018-06-21T00:41:31.257Z,22.66
2018-06-21T00:42:31.010Z,22.65
2018-06-21T00:43:31.237Z,22.68
2018-06-21T00:44:30.783Z,22.72
2018-06-21T00:45:30.998Z,22.66
2018-06-21T00:46:30.980Z,22.65
2018-06-21T00:47:31.234Z,22.66
2018-06-21T00:48:31.236Z,22.72
2018-06-21T00:49:31.226Z,22.63
2018-06-21T00:50:31.274Z,22.65
2018-06-21T00:51:30.984Z,22.68
2018-06-21T00:52:31.010Z,22.6
2018-06-21T00:53:30.740Z,22.57
2018-06-21T00:54:30.766Z,22.59
2018-06-21T00:55:31.294Z,22.55
2018-06-21T00:56:31.267Z,22.48
2018-06-21T00:57:31.272Z,22.55
2018-06-21T00:58:31.295Z,22.53
2018-06-21T00:59:30.774Z,22.44
2018-06-21T01:00:31.283Z,22.47
2018-06-21T01:01:31.285Z,22.33
2018-06-21T01:02:31.037Z,22.36
2018-06-21T01:03:30.789Z,22.28
2018-06-21T01:04:30.788Z,22.32
2018-06-21T01:05:31.045Z,22.36
2018-06-21T01:06:30.795Z,22.25
2018-06-21T01:07:31.315Z,22.23
2018-06-21T01:08:31.058Z,22.26
2018-06-21T01:09:31.054Z,22.28
2018-06-21T01:10:31.317Z,22.11
2018-06-21T01:11:31.323Z,22.13
2018-06-21T01:12:31.314Z,22.04
2018-06-21T01:13:31.091Z,22.04
2018-06-21T01:14:31.315Z,22.02
2018-06-21T01:15:31.151Z,22.07
2018-06-21T01:16:31.062Z,22.06
2018-06-21T01:17:31.327Z,22.1
2018-06-21T01:18:31.086Z,22.14
2018-06-21T01:19:31.081Z,22.13
2018-06-21T01:20:31.334Z,22.17
2018-06-21T01:21:31.084Z,22.14
2018-06-21T01:22:31.338Z,22.11
2018-06-21T01:23:31.358Z,22.1
2018-06-21T01:24:31.345Z,22.14
2018-06-21T01:25:31.679Z,22.11
2018-06-21T01:26:31.353Z,22.07
2018-06-21T01:27:31.349Z,22.07
2018-06-21T01:28:31.112Z,22.14
2018-06-21T01:29:31.361Z,22.02
2018-06-21T01:30:31.131Z,22.02
2018-06-21T01:31:31.124Z,22.11
2018-06-21T01:32:31.372Z,22.02
2018-06-21T01:33:31.383Z,22
2018-06-21T01:34:31.125Z,22.08
2018-06-21T01:35:31.369Z,21.96
2018-06-21T01:36:31.392Z,22.06
2018-06-21T01:37:31.382Z,21.98
2018-06-21T01:38:30.887Z,22.13
2018-06-21T01:39:31.398Z,22.14
2018-06-21T01:40:31.144Z,22.1
2018-06-21T01:41:31.136Z,22.07
2018-06-21T01:42:31.132Z,21.93
2018-06-21T01:43:31.139Z,21.98
2018-06-21T01:44:31.419Z,21.93
2018-06-21T01:45:31.141Z,21.99
2018-06-21T01:46:31.153Z,21.89
2018-06-21T01:47:30.900Z,21.82
2018-06-21T01:48:31.152Z,21.93
2018-06-21T01:49:31.172Z,21.88
2018-06-21T01:50:31.444Z,21.88
2018-06-21T01:51:31.401Z,21.99
2018-06-21T01:52:31.166Z,21.92
2018-06-21T01:53:31.409Z,21.89
2018-06-21T01:54:30.909Z,22
2018-06-21T01:55:31.418Z,22.06
2018-06-21T01:56:31.418Z,22
2018-06-21T01:57:31.167Z,21.95
2018-06-21T01:58:31.164Z,21.96
2018-06-21T01:59:31.191Z,21.91
2018-06-21T02:00:31.429Z,21.8
2018-06-21T02:01:31.435Z,21.85
2018-06-21T02:02:30.927Z,21.8
2018-06-21T02:03:31.194Z,21.75
2018-06-21T02:04:30.937Z,21.79
2018-06-21T02:05:31.450Z,21.76
2018-06-21T02:06:31.193Z,21.66
2018-06-21T02:07:31.457Z,21.6
2018-06-21T02:08:31.447Z,21.61
2018-06-21T02:09:31.454Z,21.58
2018-06-21T02:10:31.628Z,21.57
2018-06-21T02:11:31.457Z,21.62
2018-06-21T02:12:31.260Z,21.6
2018-06-21T02:13:31.206Z,21.6
2018-06-21T02:14:31.267Z,21.62
2018-06-21T02:15:31.208Z,21.67
2018-06-21T02:16:31.216Z,21.62
2018-06-21T02:17:31.467Z,21.54
2018-06-21T02:18:31.475Z,21.52
2018-06-21T02:19:31.230Z,21.45
2018-06-21T02:20:31.485Z,21.48
2018-06-21T02:21:31.488Z,21.37
2018-06-21T02:22:30.977Z,21.43
2018-06-21T02:23:30.999Z,21.35
2018-06-21T02:24:31.281Z,21.42
2018-06-21T02:25:31.245Z,21.37
2018-06-21T02:26:31.246Z,21.43
2018-06-21T02:27:31.262Z,21.5
2018-06-21T02:28:30.989Z,21.52
2018-06-21T02:29:31.508Z,21.5
2018-06-21T02:30:31.263Z,21.54
2018-06-21T02:31:31.268Z,21.48
2018-06-21T02:32:31.568Z,21.43
2018-06-21T02:33:31.500Z,21.42
2018-06-21T02:34:31.796Z,21.29
2018-06-21T02:35:31.513Z,21.22
2018-06-21T02:36:31.008Z,21.29
2018-06-21T02:37:31.262Z,21.2
2018-06-21T02:38:31.511Z,21.15
2018-06-21T02:39:31.020Z,21.05
2018-06-21T02:40:32.216Z,21.06
2018-06-21T02:41:31.268Z,21.02
2018-06-21T02:42:31.559Z,21.05
2018-06-21T02:43:31.277Z,20.97
2018-06-21T02:44:31.316Z,20.96
2018-06-21T02:45:31.412Z,20.85
2018-06-21T02:46:31.536Z,20.88
2018-06-21T02:47:31.543Z,20.88
2018-06-21T02:48:31.558Z,20.93
2018-06-21T02:49:31.543Z,20.93
2018-06-21T02:50:31.575Z,20.96
2018-06-21T02:51:31.567Z,20.95
2018-06-21T02:52:31.283Z,20.92
2018-06-21T02:53:31.303Z,20.96
2018-06-21T02:54:31.551Z,20.9
2018-06-21T02:55:31.316Z,20.84
2018-06-21T02:56:31.303Z,20.92
2018-06-21T02:57:31.301Z,20.88
2018-06-21T02:58:31.053Z,20.93
2018-06-21T02:59:31.556Z,20.82
2018-06-21T03:00:31.583Z,20.88
2018-06-21T03:01:31.360Z,20.8
2018-06-21T03:02:31.572Z,20.84
2018-06-21T03:03:31.561Z,20.82
2018-06-21T03:04:31.582Z,20.78
2018-06-21T03:05:31.566Z,20.72
2018-06-21T03:06:31.059Z,20.69
2018-06-21T03:07:31.340Z,20.75
2018-06-21T03:08:31.061Z,20.74
2018-06-21T03:09:31.328Z,20.66
2018-06-21T03:10:31.579Z,20.75
2018-06-21T03:11:31.580Z,20.69
2018-06-21T03:12:31.361Z,20.7
2018-06-21T03:13:31.321Z,20.81
2018-06-21T03:14:31.342Z,20.9
2018-06-21T03:15:31.077Z,20.9
2018-06-21T03:16:31.093Z,20.88
2018-06-21T03:17:31.594Z,20.96
2018-06-21T03:18:31.349Z,20.95
2018-06-21T03:19:31.384Z,20.9
2018-06-21T03:20:31.444Z,20.95
2018-06-21T03:21:31.602Z,20.81
2018-06-21T03:22:31.339Z,20.81
2018-06-21T03:23:31.346Z,20.77
2018-06-21T03:24:31.606Z,20.78
2018-06-21T03:25:31.727Z,20.72
2018-06-21T03:26:31.394Z,20.69
2018-06-21T03:27:31.343Z,20.7
2018-06-21T03:28:31.094Z,20.67
2018-06-21T03:29:31.349Z,20.72
2018-06-21T03:30:31.597Z,20.72
2018-06-21T03:31:31.363Z,20.85
2018-06-21T03:32:31.118Z,20.82
2018-06-21T03:33:31.353Z,20.95
2018-06-21T03:34:31.377Z,20.97
2018-06-21T03:35:31.368Z,20.88
2018-06-21T03:36:31.640Z,20.87
2018-06-21T03:37:31.123Z,20.88
2018-06-21T03:38:31.638Z,20.9
2018-06-21T03:39:31.124Z,20.82
2018-06-21T03:40:31.371Z,20.8
2018-06-21T03:41:31.133Z,20.7
2018-06-21T03:42:31.650Z,20.81
2018-06-21T03:43:31.379Z,20.82
2018-06-21T03:44:31.633Z,20.88
2018-06-21T03:45:31.643Z,20.85
2018-06-21T03:46:31.380Z,20.92
2018-06-21T03:47:31.384Z,20.93
2018-06-21T03:48:31.662Z,21
2018-06-21T03:49:31.389Z,21.07
2018-06-21T03:50:31.695Z,21.14
2018-06-21T03:51:31.154Z,21.24
2018-06-21T03:52:31.141Z,21.29
2018-06-21T03:53:31.396Z,21.45
2018-06-21T03:54:31.144Z,21.36
2018-06-21T03:55:31.157Z,21.51
2018-06-21T03:56:31.665Z,21.46
2018-06-21T03:57:31.671Z,21.6
2018-06-21T03:58:31.408Z,21.64
2018-06-21T03:59:31.417Z,21.55
2018-06-21T04:00:31.667Z,21.42
2018-06-21T04:01:31.429Z,21.46
2018-06-21T04:02:31.429Z,21.51
2018-06-21T04:03:31.482Z,21.54
2018-06-21T04:04:31.171Z,21.77
2018-06-21T04:05:31.577Z,21.85
2018-06-21T04:06:31.420Z,22.13
2018-06-21T04:07:31.446Z,22.33
2018-06-21T04:08:31.569Z,22.53
2018-06-21T04:09:31.434Z,22.8
2018-06-21T04:10:31.199Z,22.88
2018-06-21T04:11:31.443Z,23.08
2018-06-21T04:12:31.453Z,23.25
2018-06-21T04:13:31.449Z,23.39
2018-06-21T04:14:31.444Z,23.46
2018-06-21T04:15:31.719Z,23.62
2018-06-21T04:16:31.454Z,23.78
2018-06-21T04:17:31.862Z,23.8
2018-06-21T04:18:31.763Z,23.95
2018-06-21T04:19:31.747Z,23.95
2018-06-21T04:20:31.718Z,24.06
2018-06-21T04:21:31.469Z,24.1
2018-06-21T04:22:31.741Z,24.23
2018-06-21T04:23:31.744Z,24.32
2018-06-21T04:24:31.498Z,24.48
2018-06-21T04:25:31.514Z,24.55
2018-06-21T04:26:31.761Z,24.73
2018-06-21T04:27:31.512Z,24.89
2018-06-21T04:28:31.253Z,25.06
2018-06-21T04:29:31.511Z,24.99
2018-06-21T04:30:31.809Z,25.22
2018-06-21T04:31:31.785Z,25.32
2018-06-21T04:32:31.866Z,25.43
2018-06-21T04:33:31.533Z,25.41
2018-06-21T04:34:31.307Z,25.43
2018-06-21T04:35:31.798Z,25.46
2018-06-21T04:36:31.794Z,25.54
2018-06-21T04:37:31.807Z,25.5
2018-06-21T04:38:31.342Z,25.65
2018-06-21T04:39:31.575Z,25.7
2018-06-21T04:40:31.836Z,25.7
2018-06-21T04:41:31.824Z,25.68
2018-06-21T04:42:31.325Z,25.68
2018-06-21T04:43:31.845Z,25.81
2018-06-21T04:44:31.860Z,25.83
2018-06-21T04:45:31.598Z,25.68
2018-06-21T04:46:31.652Z,25.72
2018-06-21T04:47:31.610Z,25.77
2018-06-21T04:48:31.620Z,25.87
2018-06-21T04:49:31.632Z,25.98
2018-06-21T04:50:31.642Z,26.06
2018-06-21T04:51:31.899Z,26.18
2018-06-21T04:52:31.651Z,26.31
2018-06-21T04:53:31.644Z,26.31
2018-06-21T04:54:31.406Z,26.44
2018-06-21T04:55:31.692Z,26.45
2018-06-21T04:56:31.664Z,26.44
2018-06-21T04:57:31.663Z,26.53
2018-06-21T04:58:31.924Z,26.74
2018-06-21T04:59:31.437Z,26.71
2018-06-21T05:00:31.690Z,26.65
2018-06-21T05:01:31.957Z,26.66
2018-06-21T05:02:31.696Z,26.65
2018-06-21T05:03:31.968Z,26.63
2018-06-21T05:04:31.706Z,26.55
2018-06-21T05:05:31.718Z,26.59
2018-06-21T05:06:32.370Z,26.66
2018-06-21T05:07:31.843Z,26.84
2018-06-21T05:08:31.995Z,26.7
2018-06-21T05:09:31.988Z,26.8
2018-06-21T05:10:32.003Z,26.92
2018-06-21T05:11:32.269Z,26.99
2018-06-21T05:12:31.508Z,26.74
2018-06-21T05:13:31.767Z,26.37
2018-06-21T05:14:32.034Z,26.06
2018-06-21T05:15:32.071Z,26.05
2018-06-21T05:16:32.100Z,26.23
2018-06-21T05:17:31.802Z,26.34
2018-06-21T05:18:32.060Z,26.51
2018-06-21T05:19:32.060Z,26.66
2018-06-21T05:20:31.859Z,26.95
2018-06-21T05:21:31.828Z,27.3
2018-06-21T05:22:31.819Z,27.49
2018-06-21T05:23:32.082Z,27.7
2018-06-21T05:24:31.848Z,27.89
2018-06-21T05:25:31.842Z,28.25
2018-06-21T05:26:32.120Z,28.41
2018-06-21T05:27:32.134Z,28.48
2018-06-21T05:28:31.884Z,28.56
2018-06-21T05:29:31.613Z,28.69
2018-06-21T05:30:32.204Z,28.82
2018-06-21T05:31:31.883Z,28.97
2018-06-21T05:32:31.642Z,28.76
2018-06-21T05:33:31.903Z,28.89
2018-06-21T05:34:31.910Z,28.89
2018-06-21T05:35:31.912Z,28.82
2018-06-21T05:36:32.190Z,28.84
2018-06-21T05:37:32.286Z,28.6
2018-06-21T05:38:31.938Z,28.59
2018-06-21T05:39:31.942Z,28.6
2018-06-21T05:40:31.954Z,28.74
2018-06-21T05:41:35.426Z,28.7
2018-06-21T05:42:31.975Z,28.75
2018-06-21T05:43:31.714Z,28.89
2018-06-21T05:44:32.428Z,28.96
2018-06-21T05:45:32.255Z,29.08
2018-06-21T05:46:31.758Z,29.32
2018-06-21T05:47:32.003Z,29.72
2018-06-21T05:48:32.014Z,29.9
2018-06-21T05:49:32.285Z,29.97
2018-06-21T05:50:32.290Z,30.06
2018-06-21T05:51:32.055Z,30.13
2018-06-21T05:52:32.047Z,30.13
2018-06-21T05:53:32.048Z,30.25
2018-06-21T05:54:31.816Z,30.3
2018-06-21T05:55:32.326Z,30.25
2018-06-21T05:56:32.078Z,30.34
2018-06-21T05:57:32.374Z,30.47
2018-06-21T05:58:32.353Z,30.43
2018-06-21T05:59:32.098Z,30.54
2018-06-21T06:00:32.142Z,30.61
2018-06-21T06:01:32.385Z,30.78
2018-06-21T06:02:32.132Z,30.91
2018-06-21T06:03:32.386Z,30.92
2018-06-21T06:04:31.881Z,31.06
2018-06-21T06:05:31.915Z,30.94
2018-06-21T06:06:31.902Z,30.97
2018-06-21T06:07:32.154Z,31.15
2018-06-21T06:08:32.536Z,31.31
2018-06-21T06:09:32.193Z,31.47
2018-06-21T06:10:32.463Z,31.47
2018-06-21T06:11:32.998Z,31.54
2018-06-21T06:12:32.204Z,31.69
2018-06-21T06:13:32.465Z,31.87
2018-06-21T06:24:24.095Z,33.3
2018-06-21T06:25:23.651Z,33.65
2018-06-21T06:26:23.831Z,33.86
2018-06-21T06:27:24.092Z,33.95
2018-06-21T06:28:24.107Z,34.23
2018-06-21T06:29:23.862Z,34.33
2018-06-21T06:30:23.941Z,34.29
2018-06-21T06:31:24.142Z,34.25
2018-06-21T06:32:23.889Z,34.25
2018-06-21T06:33:23.900Z,34.25
2018-06-21T06:34:24.155Z,34.2
2018-06-21T06:35:24.197Z,34.33
2018-06-21T06:36:24.168Z,34.27
2018-06-21T06:37:24.180Z,34.1
2018-06-21T06:38:23.951Z,33.9
2018-06-21T06:39:23.692Z,33.94
2018-06-21T06:40:24.482Z,33.87
2018-06-21T06:41:24.216Z,33.89
2018-06-21T06:42:24.228Z,33.94
2018-06-21T06:43:23.993Z,34.17
2018-06-21T06:44:24.296Z,34.5
2018-06-21T06:45:24.032Z,34.6
2018-06-21T06:46:24.634Z,34.66
2018-06-21T06:47:23.783Z,34.74
2018-06-21T06:48:24.030Z,34.81
2018-06-21T06:49:24.047Z,34.83
2018-06-21T06:50:24.143Z,34.71
2018-06-21T06:51:23.809Z,34.64
2018-06-21T06:52:24.121Z,34.75
2018-06-21T06:53:24.358Z,34.83
2018-06-21T06:54:24.472Z,34.67
2018-06-21T06:55:23.876Z,34.8
2018-06-21T06:56:24.114Z,34.96
2018-06-21T06:57:24.127Z,35
2018-06-21T06:58:24.125Z,35.1
2018-06-21T06:59:24.143Z,35.02
2018-06-21T07:00:24.222Z,34.77
2018-06-21T07:01:24.163Z,34.24
2018-06-21T07:02:24.433Z,34.05
2018-06-21T07:03:24.447Z,33.86
2018-06-21T07:04:24.458Z,33.89
2018-06-21T07:05:24.234Z,33.73
2018-06-21T07:06:24.467Z,33.53
2018-06-21T07:07:24.481Z,33.39
2018-06-21T07:08:24.675Z,33.43
2018-06-21T07:09:24.249Z,33.46
2018-06-21T07:10:24.619Z,33.76
2018-06-21T07:11:24.515Z,33.89
2018-06-21T07:12:24.262Z,33.96
2018-06-21T07:13:24.530Z,34.11
2018-06-21T07:14:24.989Z,34.25
2018-06-21T07:15:24.108Z,34.55
2018-06-21T07:16:24.305Z,34.71
2018-06-21T07:17:24.066Z,34.67
2018-06-21T07:18:24.597Z,34.75
2018-06-21T07:19:24.589Z,34.85
2018-06-21T07:20:24.675Z,35
2018-06-21T07:21:24.357Z,35.26
2018-06-21T07:22:24.626Z,35.64
2018-06-21T07:23:24.647Z,35.8
2018-06-21T07:24:24.140Z,35.97
2018-06-21T07:25:24.658Z,36.16
2018-06-21T07:26:24.666Z,36.04
2018-06-21T07:27:24.673Z,35.56
2018-06-21T07:28:24.839Z,35.17
2018-06-21T07:29:24.712Z,34.93
2018-06-21T07:30:24.712Z,34.75
2018-06-21T07:31:24.730Z,34.7
2018-06-21T07:32:24.209Z,34.9
2018-06-21T07:33:24.743Z,35.02
2018-06-21T07:34:24.747Z,34.99
2018-06-21T07:35:24.835Z,35.12
2018-06-21T07:36:24.281Z,34.73
2018-06-21T07:37:24.776Z,34.74
2018-06-21T07:38:24.805Z,35.02
2018-06-21T07:39:24.538Z,35.24
2018-06-21T07:40:24.830Z,35.52
2018-06-21T07:41:24.822Z,36.02
2018-06-21T07:42:24.597Z,36.54
2018-06-21T07:43:24.840Z,36.8
2018-06-21T07:44:24.848Z,36.67
2018-06-21T07:45:24.654Z,36.57
2018-06-21T07:46:24.884Z,36.55
2018-06-21T07:47:24.630Z,36.31
2018-06-21T07:48:24.903Z,36.14
2018-06-21T07:49:24.651Z,36.16
2018-06-21T07:50:24.920Z,36.21
2018-06-21T07:51:24.674Z,36.27
2018-06-21T07:52:24.901Z,36.43
2018-06-21T07:53:24.692Z,36.24
2018-06-21T07:54:24.741Z,36.4
2018-06-21T07:55:24.985Z,36.45
2018-06-21T07:56:24.727Z,36.42
2018-06-21T07:57:25.045Z,36.52
2018-06-21T07:58:24.748Z,36.17
2018-06-21T07:59:25.017Z,35.76
2018-06-21T08:00:25.068Z,35.71
2018-06-21T08:01:24.524Z,35.7
2018-06-21T08:02:24.550Z,35.58
2018-06-21T08:03:25.081Z,35.52
2018-06-21T08:04:25.068Z,35.67
2018-06-21T08:05:24.862Z,35.64
2018-06-21T08:06:24.834Z,35.55
2018-06-21T08:07:24.842Z,35.31
2018-06-21T08:08:25.125Z,35.56
2018-06-21T08:09:25.127Z,35.71
2018-06-21T08:10:25.151Z,35.79
2018-06-21T08:11:25.149Z,35.83
2018-06-21T08:12:24.923Z,36.07
2018-06-21T08:13:24.914Z,36.07
2018-06-21T08:14:25.073Z,35.82
2018-06-21T08:15:24.941Z,35.49
2018-06-21T08:16:24.953Z,35.52
2018-06-21T08:17:24.695Z,35.63
2018-06-21T08:18:25.222Z,35.58
2018-06-21T08:19:25.229Z,35.52
2018-06-21T08:20:25.230Z,35.6
2018-06-21T08:21:24.995Z,35.68
2018-06-21T08:22:25.012Z,35.79
2018-06-21T08:23:25.598Z,35.98
2018-06-21T08:24:25.292Z,35.97
2018-06-21T08:25:25.349Z,35.56
2018-06-21T08:26:25.045Z,35.46
2018-06-21T08:27:25.064Z,35.19
2018-06-21T08:28:25.333Z,35.36
2018-06-21T08:29:25.337Z,35.53
2018-06-21T08:30:25.377Z,35.61
2018-06-21T08:31:25.111Z,35.31
2018-06-21T08:32:25.240Z,34.6
2018-06-21T08:33:25.372Z,34.05
2018-06-21T08:34:25.140Z,33.3
2018-06-21T08:35:25.409Z,32.64
2018-06-21T08:36:24.898Z,31.87
2018-06-21T08:37:25.415Z,30.87
2018-06-21T08:38:25.159Z,30.12
2018-06-21T08:39:25.178Z,29.72
2018-06-21T08:40:25.520Z,29.34
2018-06-21T08:41:25.437Z,29.04
2018-06-21T08:42:25.204Z,28.96
2018-06-21T08:43:25.210Z,28.79
2018-06-21T08:44:25.478Z,28.54
2018-06-21T08:45:24.981Z,28.51
2018-06-21T08:46:25.233Z,28.96
2018-06-21T08:47:25.499Z,29.45
2018-06-21T08:48:25.244Z,29.75
2018-06-21T08:49:25.501Z,29.72
2018-06-21T08:50:25.514Z,29.95
2018-06-21T08:51:25.518Z,30.37
2018-06-21T08:52:25.719Z,30.27
2018-06-21T08:53:25.285Z,30.34
2018-06-21T08:54:25.282Z,30.72
2018-06-21T08:55:25.131Z,30.9
2018-06-21T08:56:25.041Z,31.27
2018-06-21T08:57:25.581Z,31.36
2018-06-21T08:58:25.759Z,31.24
2018-06-21T08:59:25.341Z,30.87
2018-06-21T09:00:25.349Z,30.46
2018-06-21T09:01:25.331Z,30.06
2018-06-21T09:02:25.354Z,29.82
2018-06-21T09:03:25.346Z,29.63
2018-06-21T09:04:25.605Z,29.5
2018-06-21T09:05:25.410Z,29.53
2018-06-21T09:06:25.394Z,29.5
2018-06-21T09:07:25.378Z,29.5
2018-06-21T09:08:25.658Z,29.47
2018-06-21T09:09:25.443Z,29.59
2018-06-21T09:10:25.527Z,29.38
2018-06-21T09:11:25.662Z,29.13
2018-06-21T09:12:25.674Z,28.85
2018-06-21T09:13:25.672Z,28.78
2018-06-21T09:14:25.686Z,28.89
2018-06-21T09:15:26.049Z,29.17
2018-06-21T09:16:25.731Z,29.34
2018-06-21T09:17:25.715Z,29.41
2018-06-21T09:18:25.738Z,29.45
2018-06-21T09:19:25.711Z,29.59
2018-06-21T09:20:25.224Z,29.51
2018-06-21T09:21:25.564Z,29.39
2018-06-21T09:22:25.521Z,29.34
2018-06-21T09:23:25.516Z,29.16
2018-06-21T09:24:25.507Z,29.04
2018-06-21T09:25:25.540Z,28.98
2018-06-21T09:26:25.532Z,28.96
2018-06-21T09:27:25.788Z,28.98
2018-06-21T09:28:25.540Z,28.94
2018-06-21T09:29:25.298Z,28.97
2018-06-21T09:30:25.554Z,29.02
2018-06-21T09:31:25.804Z,29.04
2018-06-21T09:32:25.805Z,29.12
2018-06-21T09:33:25.900Z,29.01
2018-06-21T09:34:25.576Z,28.81
2018-06-21T09:35:25.884Z,28.93
2018-06-21T09:36:25.579Z,28.96
2018-06-21T09:37:25.841Z,29.01
2018-06-21T09:38:25.853Z,28.93
2018-06-21T09:39:25.863Z,28.96
2018-06-21T09:40:25.637Z,28.85
2018-06-21T09:41:25.364Z,28.84
2018-06-21T09:42:25.912Z,28.69
2018-06-21T09:43:25.625Z,28.6
2018-06-21T09:44:25.891Z,28.62
2018-06-21T09:45:25.687Z,28.42
2018-06-21T09:46:36.671Z,28.44
2018-06-21T09:47:25.396Z,28.47
2018-06-21T09:48:25.705Z,28.32
2018-06-21T09:49:25.916Z,28.35
2018-06-21T09:50:25.806Z,28.41
2018-06-21T09:51:25.677Z,28.51
2018-06-21T09:52:25.516Z,28.57
2018-06-21T09:53:25.686Z,28.6
2018-06-21T09:54:25.442Z,28.45
2018-06-21T09:55:25.768Z,28.49
2018-06-21T09:56:25.958Z,28.59
2018-06-21T09:57:25.725Z,28.56
2018-06-21T09:58:25.722Z,28.59
2018-06-21T09:59:25.475Z,28.62
2018-06-21T10:00:25.998Z,28.82
2018-06-21T10:01:25.747Z,28.72
2018-06-21T10:02:25.502Z,28.62
2018-06-21T10:03:25.501Z,28.59
2018-06-21T10:04:25.764Z,28.74
2018-06-21T10:05:25.585Z,28.74
2018-06-21T10:06:25.769Z,28.76
2018-06-21T10:07:26.037Z,29.04
2018-06-21T10:08:25.561Z,29.07
2018-06-21T10:09:25.784Z,29.12
2018-06-21T10:10:26.096Z,29.24
2018-06-21T10:11:26.071Z,29.41
2018-06-21T10:12:25.819Z,29.45
2018-06-21T10:13:26.070Z,29.44
2018-06-21T10:14:27.673Z,29.56
2018-06-21T10:15:26.185Z,29.44
2018-06-21T10:16:26.085Z,29.24
2018-06-21T10:17:26.089Z,28.96
2018-06-21T10:18:25.844Z,28.89
2018-06-21T10:19:25.849Z,28.97
2018-06-21T10:20:26.032Z,28.98
2018-06-21T10:21:25.611Z,28.89
2018-06-21T10:22:26.109Z,28.91
2018-06-21T10:53:35.910Z,29.29
2018-06-21T10:54:35.656Z,29.2
2018-06-21T10:55:35.910Z,29.1
2018-06-21T10:56:35.413Z,29.05
2018-06-21T10:57:35.912Z,28.89
2018-06-21T10:58:35.926Z,28.89
2018-06-21T10:59:35.681Z,28.96
2018-06-21T11:00:35.685Z,29.02
2018-06-21T11:01:35.696Z,29.07
2018-06-21T11:02:35.947Z,29.01
2018-06-21T11:03:35.708Z,29.01
2018-06-21T11:04:35.723Z,29.04
2018-06-21T11:05:35.989Z,29.05
2018-06-21T11:06:35.979Z,29.14
2018-06-21T11:07:35.980Z,29.26
2018-06-21T11:08:35.793Z,29.36
2018-06-21T11:09:35.724Z,29.42
2018-06-21T11:10:36.046Z,29.27
2018-06-21T11:11:35.500Z,29.22
2018-06-21T11:12:36.012Z,28.96
2018-06-21T11:13:35.763Z,28.81
2018-06-21T11:14:35.761Z,28.78
2018-06-21T11:15:35.790Z,28.78
2018-06-21T11:16:35.767Z,28.82
2018-06-21T11:17:35.791Z,28.82
2018-06-21T11:18:35.798Z,28.88
2018-06-21T11:19:35.782Z,28.96
2018-06-21T11:20:35.792Z,28.96
2018-06-21T11:21:36.291Z,29.05
2018-06-21T11:22:35.809Z,29.01
2018-06-21T11:23:36.078Z,29.14
2018-06-21T11:24:36.058Z,29.27
2018-06-21T11:25:36.093Z,29.32
2018-06-21T11:26:35.831Z,29.42
2018-06-21T11:27:35.858Z,29.53
2018-06-21T11:28:36.117Z,29.71
2018-06-21T11:29:35.846Z,29.86
2018-06-21T11:30:35.842Z,29.69
2018-06-21T11:31:35.607Z,29.66
2018-06-21T11:32:35.859Z,29.61
2018-06-21T11:33:36.678Z,29.35
2018-06-21T11:34:36.119Z,29.29
2018-06-21T11:35:35.920Z,29.26
2018-06-21T11:36:35.883Z,29.13
2018-06-21T11:37:36.153Z,29.02
2018-06-21T11:38:35.917Z,28.81
2018-06-21T11:39:36.170Z,28.85
2018-06-21T11:40:36.179Z,29.04
2018-06-21T11:41:35.670Z,29.2
2018-06-21T11:42:35.924Z,29.39
2018-06-21T11:43:36.190Z,29.24
2018-06-21T11:44:35.675Z,29.26
2018-06-21T11:45:36.190Z,29.38
2018-06-21T11:46:35.965Z,29.41
2018-06-21T11:47:35.961Z,29.49
2018-06-21T11:48:35.962Z,29.6
2018-06-21T11:49:35.961Z,29.54
2018-06-21T11:50:36.216Z,29.6
2018-06-21T11:51:36.221Z,29.54
2018-06-21T11:52:36.232Z,29.51
2018-06-21T11:53:36.342Z,29.53
2018-06-21T11:54:35.994Z,29.53
2018-06-21T11:55:36.120Z,29.57
2018-06-21T11:56:36.023Z,29.56
2018-06-21T11:57:36.289Z,29.53
2018-06-21T11:58:36.025Z,29.45
2018-06-21T11:59:36.021Z,29.61
2018-06-21T12:00:36.297Z,29.75
2018-06-21T12:01:36.049Z,29.65
2018-06-21T12:02:36.304Z,29.73
2018-06-21T12:03:36.307Z,29.65
2018-06-21T12:04:36.329Z,29.72
2018-06-21T12:05:36.337Z,29.65
2018-06-21T12:06:36.340Z,29.61
2018-06-21T12:07:36.106Z,29.57
2018-06-21T12:08:36.135Z,29.51
2018-06-21T12:09:36.118Z,29.44
2018-06-21T12:10:36.166Z,29.41
2018-06-21T12:11:36.345Z,29.41
2018-06-21T12:12:36.363Z,29.41
2018-06-21T12:13:36.388Z,29.26
2018-06-21T12:14:36.377Z,29.27
2018-06-21T12:15:36.469Z,29.24
2018-06-21T12:16:36.382Z,29.31
2018-06-21T12:17:36.135Z,29.39
2018-06-21T12:18:36.409Z,29.44
2018-06-21T12:19:35.899Z,29.45
2018-06-21T12:20:36.408Z,29.32
2018-06-21T12:21:36.209Z,29.13
2018-06-21T12:22:36.181Z,29.07
2018-06-21T12:23:37.230Z,29.04
2018-06-21T12:24:36.437Z,29.07
2018-06-21T12:25:36.191Z,29.16
2018-06-21T12:26:36.191Z,29.04
2018-06-21T12:27:36.198Z,28.93
2018-06-21T12:28:36.487Z,28.89
2018-06-21T12:29:36.215Z,28.72
2018-06-21T12:30:36.219Z,28.75
2018-06-21T12:31:36.479Z,28.78
2018-06-21T12:32:36.229Z,28.97
2018-06-21T12:33:36.500Z,28.98
2018-06-21T12:34:36.493Z,29.16
2018-06-21T12:35:36.491Z,29.08
2018-06-21T12:36:36.313Z,29.29
2018-06-21T12:37:36.273Z,29.26
2018-06-21T12:38:36.308Z,29.38
2018-06-21T12:39:36.264Z,29.47
2018-06-21T12:40:36.032Z,29.45
2018-06-21T12:41:36.275Z,29.51
2018-06-21T12:42:36.353Z,29.61
2018-06-21T12:43:36.336Z,29.57
2018-06-21T12:44:36.049Z,29.65
2018-06-21T12:45:36.052Z,29.6
2018-06-21T12:46:36.555Z,29.59
2018-06-21T12:47:36.557Z,29.61
2018-06-21T12:48:36.623Z,29.79
2018-06-21T12:49:36.317Z,29.6
2018-06-21T12:50:36.588Z,29.73
2018-06-21T12:51:36.585Z,29.63
2018-06-21T12:52:36.766Z,29.56
2018-06-21T12:53:37.517Z,29.59
2018-06-21T12:54:36.358Z,29.57
2018-06-21T12:55:36.619Z,29.56
2018-06-21T12:56:36.112Z,29.49
2018-06-21T12:57:36.620Z,29.57
2018-06-21T12:58:36.387Z,29.63
2018-06-21T12:59:36.650Z,29.72
2018-06-21T13:00:36.388Z,29.86
2018-06-21T13:01:36.396Z,30.06
2018-06-21T13:02:36.661Z,30.15
2018-06-21T13:03:36.667Z,30.19
2018-06-21T13:04:36.407Z,30.4
2018-06-21T13:05:36.727Z,30.31
2018-06-21T13:06:36.194Z,30.13
2018-06-21T13:07:36.696Z,30.03
2018-06-21T13:08:36.692Z,30.13
2018-06-21T13:09:36.451Z,30.15
2018-06-21T13:10:36.699Z,30.28
2018-06-21T13:11:36.710Z,30.31
2018-06-21T13:12:36.734Z,30.28
2018-06-21T13:13:36.480Z,30.27
2018-06-21T13:14:36.763Z,30.1
2018-06-21T13:15:36.648Z,30.08
2018-06-21T13:16:36.486Z,30.03
2018-06-21T13:17:36.511Z,29.9
2018-06-21T13:18:36.800Z,29.84
2018-06-21T13:19:36.503Z,29.86
2018-06-21T13:20:36.577Z,29.76
2018-06-21T13:21:36.782Z,29.73
2018-06-21T13:22:36.265Z,29.73
2018-06-21T13:23:36.556Z,29.71
2018-06-21T13:24:36.797Z,29.51
2018-06-21T13:25:36.800Z,29.47
2018-06-21T13:26:36.590Z,29.5
2018-06-21T13:27:36.810Z,29.61
2018-06-21T13:28:36.336Z,29.69
2018-06-21T13:29:36.560Z,29.72
2018-06-21T13:30:36.611Z,29.54
2018-06-21T13:31:36.596Z,29.57
2018-06-21T13:32:36.341Z,29.42
2018-06-21T13:33:36.862Z,29.07
2018-06-21T13:34:36.856Z,28.97
2018-06-21T13:35:36.372Z,28.79